Time;durP1;ratioP1;P1;durP2;ratioP2;P2;SDS_P1;SDS_P2;PMS_P1;PMS_P2;Temp;Humidity;BMP_temperature;BMP_pressure;BME280_temperature;BME280_humidity;BME280_pressure;Samples;Min_cycle;Max_cycle;Signal;HPM_P1;HPM_P2
2023/01/13 00:02:23;;;;;;;5.13;1.50;;;;;;;7.87;100.00;100370.72;4939597;29;20038;-93
2023/01/13 00:04:48;;;;;;;8.05;1.58;;;;;;;7.88;100.00;100372.41;4940449;29;20091;-93
2023/01/13 00:07:13;;;;;;;6.10;1.70;;;;;;;7.84;100.00;100370.75;4940105;29;20030;-93
2023/01/13 00:09:39;;;;;;;7.60;1.90;;;;;;;7.83;100.00;100376.78;4940361;29;20024;-92
2023/01/13 00:12:05;;;;;;;11.23;2.30;;;;;;;7.80;100.00;100369.06;4940058;29;20039;-93
2023/01/13 00:14:33;;;;;;;4.93;1.48;;;;;;;7.80;100.00;100373.38;4940250;29;20023;-93
2023/01/13 00:16:59;;;;;;;8.43;2.03;;;;;;;7.73;100.00;100370.84;4940241;29;20023;-93
2023/01/13 00:19:24;;;;;;;10.17;2.07;;;;;;;7.70;100.00;100359.69;4939046;29;20036;-93
2023/01/13 00:21:49;;;;;;;9.87;2.23;;;;;;;7.66;100.00;100348.56;4940101;29;20024;-93
2023/01/13 00:24:15;;;;;;;7.63;1.90;;;;;;;7.67;100.00;100350.28;4939411;29;20113;-92
2023/01/13 00:26:40;;;;;;;8.50;1.98;;;;;;;7.62;100.00;100340.88;4939653;29;20028;-94
2023/01/13 00:29:05;;;;;;;7.57;2.10;;;;;;;7.59;100.00;100331.44;4939610;29;20028;-94
2023/01/13 00:31:31;;;;;;;11.97;2.40;;;;;;;7.55;100.00;100337.50;4939975;29;20120;-93
2023/01/13 00:33:58;;;;;;;8.20;2.03;;;;;;;7.51;100.00;100338.38;4939412;29;20110;-94
2023/01/13 00:36:23;;;;;;;12.27;2.00;;;;;;;7.48;100.00;100326.38;4939812;29;20047;-93
2023/01/13 00:38:49;;;;;;;11.43;2.60;;;;;;;7.47;100.00;100321.22;4939391;29;20031;-93
2023/01/13 00:41:17;;;;;;;11.63;2.58;;;;;;;7.44;100.00;100310.94;4939107;29;20086;-93
2023/01/13 00:43:44;;;;;;;4.90;1.88;;;;;;;7.42;100.00;100316.13;4939575;29;20031;-93
2023/01/13 00:46:10;;;;;;;;;;;;;;;7.39;100.00;100318.72;4939672;29;20083;-93
2023/01/13 00:48:36;;;;;;;;;;;;;;;7.35;100.00;100311.88;4940740;29;20023;-93
2023/01/13 00:51:13;;;;;;;12.02;2.33;;;;;;;7.30;100.00;100311.09;4924017;29;19947;-93
2023/01/13 00:53:43;;;;;;;9.27;2.58;;;;;;;7.26;100.00;100312.84;4920448;29;20066;-93
2023/01/13 00:56:16;;;;;;;9.98;2.20;;;;;;;7.25;100.00;100308.56;4920213;29;20127;-94
2023/01/13 00:58:43;;;;;;;12.55;2.50;;;;;;;7.20;100.00;100316.34;4920146;29;20034;-94
2023/01/13 01:01:10;;;;;;;;;;;;;;;7.20;100.00;100318.06;4920603;29;20036;-94
2023/01/13 01:03:35;;;;;;;8.90;1.90;;;;;;;7.17;100.00;100312.91;4920412;29;19971;-94
2023/01/13 01:06:07;;;;;;;10.57;2.10;;;;;;;7.15;100.00;100328.44;4919819;29;20434;-93
2023/01/13 01:08:34;;;;;;;7.75;2.00;;;;;;;7.13;100.00;100326.72;4920365;29;20028;-94
2023/01/13 01:11:08;;;;;;;10.23;2.15;;;;;;;7.09;100.00;100336.25;4920389;29;20078;-95
2023/01/13 01:13:34;;;;;;;8.07;1.90;;;;;;;7.12;100.00;100333.59;4920448;29;20371;-96
2023/01/13 01:16:05;;;;;;;7.68;2.20;;;;;;;7.12;100.00;100338.75;4920484;29;20024;-94
2023/01/13 01:18:31;;;;;;;11.13;1.90;;;;;;;7.12;100.00;100341.34;4928818;29;20004;-95
2023/01/13 01:20:58;;;;;;;12.43;2.03;;;;;;;7.12;100.00;100325.88;4931107;29;20040;-94
2023/01/13 01:23:24;;;;;;;14.60;2.50;;;;;;;7.23;100.00;100328.34;4920960;29;20032;-94
2023/01/13 01:25:49;;;;;;;13.60;2.50;;;;;;;7.16;100.00;100335.31;4920596;29;20024;-94
2023/01/13 01:28:17;;;;;;;9.13;2.05;;;;;;;7.23;100.00;100336.09;4919711;29;20020;-94
2023/01/13 01:30:42;;;;;;;16.88;2.67;;;;;;;7.21;100.00;100332.66;4920635;29;20088;-94
2023/01/13 01:33:07;;;;;;;12.40;2.87;;;;;;;7.23;100.00;100331.78;4919551;29;20095;-95
2023/01/13 01:35:40;;;;;;;12.77;2.10;;;;;;;7.23;100.00;100338.69;4919688;29;20051;-94
2023/01/13 01:38:05;;;;;;;12.45;2.53;;;;;;;7.24;100.00;100346.41;4919280;29;20024;-95
2023/01/13 01:40:30;;;;;;;12.37;2.30;;;;;;;7.23;100.00;100338.69;4919559;29;20088;-93
2023/01/13 01:45:39;;;;;;;9.45;2.63;;;;;;;7.20;100.00;100351.59;4920397;29;20047;-95
2023/01/13 01:48:06;;;;;;;11.00;2.43;;;;;;;7.14;100.00;100337.03;4920161;29;20119;-95
2023/01/13 01:50:33;;;;;;;9.10;2.10;;;;;;;7.13;100.00;100335.31;4919534;29;20024;-95
2023/01/13 01:53:05;;;;;;;8.55;2.30;;;;;;;7.14;100.00;100344.78;4919206;29;20401;-94
2023/01/13 01:55:35;;;;;;;6.05;2.10;;;;;;;7.11;100.00;100340.50;4919564;29;20044;-94
2023/01/13 01:58:09;;;;;;;12.23;2.60;;;;;;;7.08;100.00;100337.94;4923704;29;20019;-94
2023/01/13 02:00:35;;;;;;;10.35;2.33;;;;;;;7.05;100.00;100330.22;4938643;29;20031;-94
2023/01/13 02:03:02;;;;;;;14.90;2.70;;;;;;;7.03;100.00;100341.44;4936315;29;20073;-94
2023/01/13 02:05:27;;;;;;;;;;;;;;;6.95;98.77;100337.22;4918764;29;20056;-96
2023/01/13 02:07:54;;;;;;;11.13;2.47;;;;;;;6.95;99.79;100341.50;4919108;29;19915;-94
2023/01/13 02:10:24;;;;;;;11.57;2.63;;;;;;;6.90;98.65;100327.78;4919188;29;20047;-94
2023/01/13 02:12:51;;;;;;;13.73;2.75;;;;;;;6.87;98.59;100333.81;4919182;29;20075;-96
2023/01/13 02:15:21;;;;;;;8.63;2.00;;;;;;;6.86;100.00;100326.09;4918728;29;20380;-95
2023/01/13 02:18:13;;;;;;;16.08;2.83;;;;;;;6.85;98.77;100334.69;4919189;29;20020;-95
2023/01/13 02:20:51;;;;;;;12.23;2.47;;;;;;;6.80;98.36;100335.63;4918600;29;20126;-95
2023/01/13 02:26:33;;;;;;;16.58;3.22;;;;;;;6.75;96.68;100332.19;4918844;29;20405;-94
2023/01/13 02:32:17;;;;;;;13.88;2.92;;;;;;;6.70;96.86;100333.09;4899638;29;20113;-94
2023/01/13 02:35:03;;;;;;;17.42;3.20;;;;;;;6.69;97.05;100336.53;4899838;29;20477;-94
2023/01/13 02:37:32;;;;;;;12.40;2.50;;;;;;;6.67;97.68;100336.56;4900009;29;20141;-96
2023/01/13 02:40:18;;;;;;;12.40;2.55;;;;;;;6.62;96.68;100346.91;4899813;29;20028;-95
2023/01/13 02:45:40;;;;;;;15.75;2.50;;;;;;;6.59;98.56;100315.13;4899866;29;19922;-94
2023/01/13 02:48:07;;;;;;;17.63;2.67;;;;;;;6.58;98.42;100306.53;4899560;29;20025;-95
2023/01/13 02:50:42;;;;;;;18.00;3.00;;;;;;;6.58;98.92;100305.69;4899991;29;20025;-95
2023/01/13 02:53:13;;;;;;;15.02;2.80;;;;;;;6.59;98.59;100315.13;4905332;29;20112;-94
2023/01/13 02:55:45;;;;;;;10.40;2.40;;;;;;;6.63;99.15;100314.25;4902143;29;20163;-95
2023/01/13 02:58:14;;;;;;;12.93;2.60;;;;;;;6.60;98.84;100306.53;4918251;29;20028;-94
2023/01/13 03:00:41;;;;;;;15.20;2.75;;;;;;;6.64;99.30;100303.06;4918119;29;20028;-94
2023/01/13 03:03:06;;;;;;;10.25;2.80;;;;;;;6.64;99.55;100288.44;4918062;29;20039;-95
2023/01/13 03:05:32;;;;;;;14.57;2.77;;;;;;;6.67;99.25;100291.84;4917930;29;20469;-95
2023/01/13 03:08:21;;;;;;;12.00;2.40;;;;;;;6.68;99.66;100301.31;4918281;29;20088;-95
2023/01/13 03:11:17;;;;;;;16.27;2.90;;;;;;;6.69;99.07;100301.31;4917819;29;20027;-95
2023/01/13 03:13:49;;;;;;;;;;;;;;;6.71;99.61;100299.56;4910038;29;20043;-95
2023/01/13 03:16:39;;;;;;;11.07;2.45;;;;;;;6.72;99.23;100303.00;4917671;29;20268;-95
2023/01/13 03:19:10;;;;;;;14.95;2.60;;;;;;;6.76;98.90;100284.91;4917599;29;20067;-94
2023/01/13 03:21:55;;;;;;;14.15;2.45;;;;;;;6.78;98.91;100293.50;4917866;29;20036;-94
2023/01/13 03:24:39;;;;;;;12.40;2.90;;;;;;;6.79;99.03;100291.75;4917813;29;20095;-94
2023/01/13 03:27:14;;;;;;;12.20;2.63;;;;;;;6.82;98.42;100301.19;4917799;29;20108;-93
2023/01/13 03:29:45;;;;;;;12.45;2.45;;;;;;;6.84;97.75;100291.72;4917863;29;20473;-95
2023/01/13 03:32:24;;;;;;;15.43;2.80;;;;;;;6.87;97.78;100274.47;4917829;29;20035;-95
2023/01/13 03:34:55;;;;;;;12.77;2.33;;;;;;;6.91;97.60;100277.91;4918507;29;20402;-96
2023/01/13 03:37:28;;;;;;;13.85;2.60;;;;;;;6.94;97.65;100296.78;4917419;29;20115;-95
2023/01/13 03:39:59;;;;;;;13.23;3.05;;;;;;;6.99;96.50;100298.47;4917377;29;20055;-95
2023/01/13 03:42:30;;;;;;;15.25;2.60;;;;;;;7.01;93.88;100286.41;4917374;29;20056;-94
2023/01/13 03:45:16;;;;;;;12.55;2.35;;;;;;;7.05;91.77;100299.25;4918396;29;20021;-96
2023/01/13 03:47:50;;;;;;;10.82;1.98;;;;;;;7.06;91.59;100292.38;4917946;29;20043;-95
2023/01/13 03:50:32;;;;;;;12.32;2.40;;;;;;;7.09;90.55;100282.88;4917533;29;20032;-94
2023/01/13 03:53:05;;;;;;;8.30;1.67;;;;;;;7.09;91.14;100282.88;4917157;29;20056;-94
2023/01/13 03:55:34;;;;;;;9.63;1.85;;;;;;;7.09;90.17;100293.22;4919317;29;20028;-94
2023/01/13 03:58:02;;;;;;;6.63;1.73;;;;;;;7.09;90.54;100282.88;4924804;29;20032;-95
2023/01/13 04:00:32;;;;;;;7.90;1.48;;;;;;;7.10;89.20;100273.41;4939927;29;20054;-94
2023/01/13 04:03:06;;;;;;;5.13;1.05;;;;;;;7.07;89.87;100278.63;4938264;29;20028;-94
2023/01/13 04:05:37;;;;;;;3.55;1.27;;;;;;;7.07;90.12;100279.47;4937097;29;20032;-94
2023/01/13 04:08:20;;;;;;;4.82;1.25;;;;;;;7.05;90.18;100286.34;4937685;29;20027;-94
2023/01/13 04:11:03;;;;;;;5.10;1.15;;;;;;;7.02;89.66;100290.69;4938231;29;20028;-94
2023/01/13 04:13:34;;;;;;;4.63;1.25;;;;;;;7.05;89.89;100298.41;4929881;29;20031;-93
2023/01/13 04:15:59;;;;;;;5.30;1.20;;;;;;;7.01;90.07;100297.59;4917817;29;20075;-93
2023/01/13 04:18:27;;;;;;;5.17;1.27;;;;;;;6.96;90.85;100317.41;4917062;29;20430;-94
2023/01/13 04:20:55;;;;;;;8.23;1.50;;;;;;;6.92;91.11;100321.75;4917293;29;20024;-94
2023/01/13 04:23:21;;;;;;;4.43;1.00;;;;;;;6.89;92.02;100329.50;4918984;29;20032;-93
2023/01/13 04:25:47;;;;;;;1.83;0.70;;;;;;;6.84;92.35;100328.69;4920671;29;20032;-94
2023/01/13 04:28:13;;;;;;;4.60;1.13;;;;;;;6.82;93.53;100326.97;4921556;29;20034;-95
2023/01/13 04:30:40;;;;;;;7.85;1.70;;;;;;;6.76;94.64;100336.50;4922216;29;20028;-95
2023/01/13 04:33:06;;;;;;;8.75;2.08;;;;;;;6.78;94.64;100337.34;4921950;29;20020;-96
2023/01/13 04:35:34;;;;;;;10.47;2.03;;;;;;;6.81;95.01;100328.72;4920800;29;20394;-95
2023/01/13 04:38:06;;;;;;;7.10;1.48;;;;;;;6.74;95.37;100333.06;4920826;29;20066;-94
2023/01/13 04:40:41;;;;;;;7.65;1.77;;;;;;;6.73;95.42;100317.63;4921075;29;20040;-94
2023/01/13 04:43:14;;;;;;;9.98;1.88;;;;;;;6.74;95.91;100309.00;4920700;29;20079;-96
2023/01/13 04:45:40;;;;;;;7.00;1.75;;;;;;;6.70;96.55;100308.16;4920599;29;20031;-95
2023/01/13 04:48:06;;;;;;;7.10;1.90;;;;;;;6.68;96.71;100312.50;4920381;29;20024;-94
2023/01/13 04:50:31;;;;;;;7.00;1.90;;;;;;;6.68;96.91;100307.34;4920833;29;20028;-94
2023/01/13 04:53:15;;;;;;;9.98;1.80;;;;;;;6.64;97.57;100303.91;4920047;29;20532;-95
2023/01/13 04:55:40;;;;;;;7.68;1.90;;;;;;;6.63;97.73;100306.50;4921001;29;20508;-94
2023/01/13 04:58:08;;;;;;;12.83;2.20;;;;;;;6.59;98.27;100290.22;4930523;29;20028;-94
2023/01/13 05:00:34;;;;;;;7.30;1.77;;;;;;;6.64;97.66;100297.91;4921239;29;20381;-94
2023/01/13 05:02:59;;;;;;;12.07;2.23;;;;;;;6.62;97.67;100287.63;4920939;29;20111;-95
2023/01/13 05:05:26;;;;;;;12.47;2.47;;;;;;;6.58;98.14;100282.50;4919985;29;20039;-95
2023/01/13 05:07:52;;;;;;;9.80;2.08;;;;;;;6.55;97.91;100287.66;4920177;29;20470;-94
2023/01/13 05:10:17;;;;;;;8.00;1.95;;;;;;;6.49;98.44;100284.25;4920119;29;20048;-95
2023/01/13 05:18:11;;;;;;;10.63;2.13;;;;;;;6.44;99.14;100285.16;4919866;29;20047;-95
2023/01/13 05:20:37;;;;;;;6.43;1.85;;;;;;;6.45;99.07;100284.28;4920048;29;20082;-95
2023/01/13 05:25:47;;;;;;;9.63;2.00;;;;;;;6.44;99.09;100296.34;4920152;29;20127;-94
2023/01/13 05:28:12;;;;;;;10.18;2.33;;;;;;;6.42;98.99;100307.50;4919596;29;20056;-93
2023/01/13 05:30:43;;;;;;;10.65;1.80;;;;;;;6.40;99.11;100304.09;4919638;29;20063;-93
2023/01/13 05:33:10;;;;;;;13.55;2.05;;;;;;;6.41;98.86;100308.41;4919632;29;20028;-94
2023/01/13 05:35:39;;;;;;;;;;;;;;;6.37;98.90;100304.97;4920341;29;20024;-94
2023/01/13 05:38:04;;;;;;;9.50;1.90;;;;;;;6.36;98.83;100300.66;4918810;29;19915;-96
2023/01/13 05:43:23;;;;;;;13.35;3.00;;;;;;;6.40;98.57;100315.25;4919631;29;20112;-94
2023/01/13 05:45:59;;;;;;;14.98;2.20;;;;;;;6.34;98.76;100315.31;4919547;29;20028;-92
2023/01/13 05:48:38;;;;;;;10.63;2.10;;;;;;;6.29;98.71;100317.91;4919557;29;20412;-94
2023/01/13 05:51:05;;;;;;;9.15;2.08;;;;;;;6.30;98.57;100326.50;4919508;29;20039;-94
2023/01/13 05:53:31;;;;;;;11.40;1.90;;;;;;;6.29;98.38;100327.34;4918957;29;20052;-94
2023/01/13 05:55:56;;;;;;;11.57;2.70;;;;;;;6.28;98.11;100326.50;4918663;29;20029;-94
2023/01/13 05:58:24;;;;;;;5.50;1.80;;;;;;;6.25;98.08;100329.09;4933247;29;20031;-95
2023/01/13 06:00:50;;;;;;;6.28;1.65;;;;;;;6.27;98.17;100336.81;4939839;29;20364;-93
2023/01/13 06:03:18;;;;;;;9.33;2.00;;;;;;;6.26;97.60;100337.66;4937865;29;20055;-94
2023/01/13 06:05:44;;;;;;;12.63;1.92;;;;;;;6.25;97.55;100338.56;4942273;29;20046;-94
2023/01/13 06:08:09;;;;;;;7.80;1.90;;;;;;;6.26;97.71;100346.28;4929556;29;20470;-93
2023/01/13 06:10:35;;;;;;;11.90;2.40;;;;;;;6.24;97.34;100347.16;4919297;29;20024;-95
2023/01/13 06:13:01;;;;;;;9.95;1.80;;;;;;;6.22;97.42;100354.88;4919032;29;20027;-95
2023/01/13 06:15:27;;;;;;;9.15;2.05;;;;;;;6.21;96.97;100363.47;4918895;29;20047;-95
2023/01/13 06:17:52;;;;;;;7.32;2.22;;;;;;;6.21;97.09;100360.06;4919026;29;20044;-94
2023/01/13 06:20:18;;;;;;;8.83;1.90;;;;;;;6.21;96.82;100362.63;4918572;29;20032;-95
2023/01/13 06:22:49;;;;;;;8.73;1.80;;;;;;;6.17;97.09;100370.38;4918597;29;20035;-94
2023/01/13 06:25:36;;;;;;;8.35;2.00;;;;;;;6.14;97.18;100366.94;4918513;29;20032;-94
2023/01/13 06:28:01;;;;;;;4.47;1.45;;;;;;;6.11;97.51;100367.81;4918882;29;20024;-94
2023/01/13 06:30:44;;;;;;;7.77;1.50;;;;;;;6.10;97.52;100372.97;4918432;29;20021;-95
2023/01/13 06:33:13;;;;;;;5.75;1.50;;;;;;;6.06;97.39;100361.81;4937132;29;20028;-93
2023/01/13 06:35:42;;;;;;;8.52;1.73;;;;;;;6.03;97.79;100364.41;4933314;29;20028;-95
2023/01/13 06:38:12;;;;;;;4.88;1.55;;;;;;;6.00;97.59;100367.88;4918594;29;20028;-94
2023/01/13 06:40:38;;;;;;;9.45;1.80;;;;;;;5.96;97.38;100368.72;4918695;29;20084;-94
2023/01/13 06:43:20;;;;;;;6.40;1.60;;;;;;;5.95;97.25;100373.84;4918088;29;20056;-93
2023/01/13 06:45:54;;;;;;;11.40;2.42;;;;;;;5.97;97.51;100369.56;4918558;29;20024;-94
2023/01/13 06:48:23;;;;;;;12.20;2.22;;;;;;;5.94;97.39;100362.72;4899397;29;20025;-95
2023/01/13 06:50:48;;;;;;;14.02;2.50;;;;;;;5.99;96.34;100361.00;4899091;29;20028;-94
2023/01/13 06:53:14;;;;;;;11.38;2.10;;;;;;;6.01;96.44;100356.69;4898937;29;20049;-93
2023/01/13 06:55:39;;;;;;;9.87;1.93;;;;;;;6.00;96.92;100354.97;4899131;29;20439;-93
2023/01/13 06:58:05;;;;;;;6.90;1.80;;;;;;;5.98;96.67;100369.53;4899404;29;20061;-93
2023/01/13 07:00:37;;;;;;;12.95;2.35;;;;;;;6.01;96.11;100361.84;4899900;29;20060;-94
2023/01/13 07:03:13;;;;;;;9.40;2.10;;;;;;;6.02;95.66;100358.41;4904951;29;20032;-95
2023/01/13 07:05:39;;;;;;;;;;;;;;;6.02;95.90;100370.44;4918843;29;20031;-94
2023/01/13 07:08:06;;;;;;;8.98;2.10;;;;;;;6.01;95.93;100372.16;4917996;29;19914;-93
2023/01/13 07:10:32;;;;;;;8.43;1.90;;;;;;;6.02;95.83;100370.44;4918016;29;20377;-93
2023/01/13 07:15:59;;;;;;;15.18;2.67;;;;;;;6.13;94.24;100378.13;4918589;29;20397;-94
2023/01/13 07:18:26;;;;;;;14.00;2.63;;;;;;;6.18;94.91;100376.38;4921080;29;20024;-95
2023/01/13 07:20:56;;;;;;;9.80;1.95;;;;;;;6.15;93.98;100368.66;4927325;29;20477;-96
2023/01/13 07:23:21;;;;;;;10.85;2.20;;;;;;;6.13;94.09;100367.81;4918581;29;20025;-88
2023/01/13 07:25:47;;;;;;;13.10;2.67;;;;;;;6.17;93.87;100383.25;4917459;29;20071;-88
2023/01/13 07:28:13;;;;;;;11.65;2.00;;;;;;;6.16;93.08;100384.09;4916867;29;20024;-87
2023/01/13 07:30:38;;;;;;;11.88;2.20;;;;;;;6.15;93.32;100376.41;4917173;29;20035;-89
2023/01/13 07:33:12;;;;;;;11.15;2.78;;;;;;;6.14;93.73;100379.84;4917100;29;20035;-88
2023/01/13 07:35:37;;;;;;;15.00;2.35;;;;;;;6.15;92.43;100382.38;4917602;29;20174;-88
2023/01/13 07:38:02;;;;;;;9.23;2.20;;;;;;;6.14;92.89;100396.13;4916798;29;20121;-88
2023/01/13 07:40:28;;;;;;;11.73;2.22;;;;;;;6.11;92.90;100403.03;4917126;29;20024;-88
2023/01/13 07:45:37;;;;;;;11.90;2.30;;;;;;;6.06;93.22;100397.91;4901859;29;20099;-89
2023/01/13 07:48:02;;;;;;;8.37;1.73;;;;;;;6.03;92.42;100395.31;4916761;29;20027;-86
2023/01/13 07:50:28;;;;;;;14.37;2.63;;;;;;;6.05;91.49;100403.06;4922891;29;20020;-96
2023/01/13 07:52:56;;;;;;;9.48;2.17;;;;;;;6.06;92.78;100403.03;4919003;29;20092;-86
2023/01/13 07:55:22;;;;;;;11.55;2.20;;;;;;;6.08;92.23;100396.19;4915097;29;20032;-85
2023/01/13 07:57:47;;;;;;;12.73;2.50;;;;;;;6.09;92.50;100408.19;4928917;29;20366;-86
2023/01/13 08:00:13;;;;;;;13.37;2.47;;;;;;;6.10;91.82;100416.78;4917366;29;20039;-85
2023/01/13 08:02:38;;;;;;;11.90;2.53;;;;;;;6.22;91.87;100414.16;4919520;29;20021;-86
2023/01/13 08:05:04;;;;;;;14.10;2.38;;;;;;;6.11;91.68;100396.16;4919839;29;20496;-86
2023/01/13 08:07:29;;;;;;;12.80;2.33;;;;;;;6.15;92.30;100408.16;4921093;29;20389;-94
2023/01/13 08:09:54;;;;;;;10.33;2.60;;;;;;;6.12;92.65;100410.78;4921126;29;20083;-93
2023/01/13 08:15:04;;;;;;;9.90;2.10;;;;;;;6.10;92.75;100406.47;4920998;29;20047;-93
2023/01/13 08:17:29;;;;;;;13.93;2.43;;;;;;;6.10;92.44;100415.06;4920667;29;20028;-92
2023/01/13 08:19:54;;;;;;;16.77;2.78;;;;;;;6.14;92.15;100413.31;4921142;29;20036;-92
2023/01/13 08:22:21;;;;;;;11.40;2.42;;;;;;;6.16;92.76;100424.50;4920128;29;20028;-90
2023/01/13 08:24:46;;;;;;;11.40;2.50;;;;;;;6.18;92.54;100418.47;4919139;29;20470;-90
2023/01/13 08:27:12;;;;;;;12.07;2.30;;;;;;;6.17;92.58;100415.91;4920312;29;20038;-90
2023/01/13 08:29:37;;;;;;;10.40;2.45;;;;;;;6.21;93.18;100416.75;4920655;29;20035;-86
2023/01/13 08:32:03;;;;;;;9.68;2.30;;;;;;;6.18;92.69;100420.19;4919435;29;20363;-90
2023/01/13 08:34:28;;;;;;;12.40;2.38;;;;;;;6.21;92.81;100421.91;4920246;29;20032;-91
2023/01/13 08:36:53;;;;;;;11.40;2.05;;;;;;;6.23;93.60;100426.16;4920498;29;20024;-91
2023/01/13 08:39:18;;;;;;;12.25;2.55;;;;;;;6.23;93.52;100426.16;4919362;29;20075;-91
2023/01/13 08:41:57;;;;;;;8.68;2.10;;;;;;;6.25;93.65;100426.19;4920582;29;20039;-91
2023/01/13 08:44:26;;;;;;;13.07;2.17;;;;;;;6.30;93.47;100438.19;4919497;29;20051;-91
2023/01/13 08:46:52;;;;;;;11.98;2.30;;;;;;;6.34;93.29;100436.44;4919922;29;20135;-91
2023/01/13 08:49:18;;;;;;;14.30;2.57;;;;;;;6.45;92.57;100432.09;4922079;29;20032;-91
2023/01/13 08:51:43;;;;;;;13.23;2.20;;;;;;;6.46;93.20;100432.94;4919549;29;20075;-91
2023/01/13 08:54:09;;;;;;;12.65;2.45;;;;;;;6.47;93.64;100438.06;4919889;29;20036;-90
2023/01/13 08:56:34;;;;;;;12.68;2.50;;;;;;;6.53;93.05;100449.25;4920264;29;20024;-92
2023/01/13 08:59:00;;;;;;;12.02;2.40;;;;;;;6.59;92.43;100444.03;4918960;29;20484;-89
2023/01/13 09:01:26;;;;;;;11.60;2.50;;;;;;;6.61;92.45;100442.31;4918983;29;20036;-89
2023/01/13 09:03:51;;;;;;;13.25;2.70;;;;;;;6.67;92.78;100452.63;4919786;29;20128;-89
2023/01/13 09:06:17;;;;;;;10.00;2.40;;;;;;;6.71;92.63;100453.44;4936225;29;20052;-89
2023/01/13 09:08:43;;;;;;;15.10;2.55;;;;;;;6.71;92.33;100459.44;4922824;29;20043;-88
2023/01/13 09:14:03;;;;;;;13.48;2.53;;;;;;;6.89;91.88;100468.81;4918950;29;20052;-90
2023/01/13 09:16:28;;;;;;;18.43;3.23;;;;;;;6.99;90.98;100464.47;4938441;29;20044;-89
2023/01/13 09:18:54;;;;;;;15.48;2.65;;;;;;;7.12;89.17;100475.53;4920430;29;20083;-91
2023/01/13 09:21:23;;;;;;;15.52;2.63;;;;;;;7.23;90.12;100484.06;4920025;29;20103;-88
2023/01/13 09:23:50;;;;;;;14.32;3.22;;;;;;;7.37;89.47;100476.25;4938100;29;20392;-89
2023/01/13 09:26:20;;;;;;;16.55;2.60;;;;;;;7.49;88.30;100462.34;4910159;29;20028;-89
2023/01/13 09:28:45;;;;;;;10.60;2.05;;;;;;;7.54;88.72;100468.31;4919115;29;20051;-91
2023/01/13 09:31:10;;;;;;;15.17;2.77;;;;;;;7.62;88.19;100464.84;4920817;29;20028;-89
2023/01/13 09:36:19;;;;;;;14.02;2.75;;;;;;;7.64;87.85;100465.69;4918979;29;20105;-89
2023/01/13 09:38:45;;;;;;;18.70;3.40;;;;;;;7.60;85.66;100494.97;4919264;29;20435;-91
2023/01/13 09:44:11;;;;;;;17.63;3.13;;;;;;;7.57;86.94;100488.97;4939510;29;20522;-95
2023/01/13 09:46:59;;;;;;;17.27;3.15;;;;;;;7.41;86.68;100508.03;4958927;23;20040;-89
2023/01/13 09:49:48;;;;;;;13.85;2.83;;;;;;;7.37;88.62;100506.34;4918388;29;20203;-89
2023/01/13 09:52:18;;;;;;;16.67;2.75;;;;;;;7.28;90.30;100493.50;4918938;29;20028;-90
2023/01/13 09:54:58;;;;;;;13.35;2.78;;;;;;;7.21;90.64;100509.03;4926251;23;20079;-90
2023/01/13 09:57:27;;;;;;;14.50;3.13;;;;;;;7.16;90.98;100497.00;4919252;29;20124;-91
2023/01/13 09:59:52;;;;;;;14.93;3.33;;;;;;;7.10;90.32;100506.53;4919108;29;20107;-89
2023/01/13 10:02:39;;;;;;;14.87;3.30;;;;;;;7.09;90.53;100503.97;4918864;29;20568;-90
2023/01/13 10:05:13;;;;;;;15.65;2.90;;;;;;;7.07;90.71;100516.03;4919119;29;20043;-90
2023/01/13 10:07:48;;;;;;;12.95;2.65;;;;;;;7.08;91.10;100515.16;4919177;29;20087;-90
2023/01/13 10:10:20;;;;;;;17.80;3.13;;;;;;;7.07;91.27;100516.88;4920946;29;20032;-90
2023/01/13 10:15:31;;;;;;;11.95;2.60;;;;;;;7.12;91.22;100527.16;4913220;29;20039;-89
2023/01/13 10:18:08;;;;;;;14.38;2.92;;;;;;;7.17;91.44;100530.56;4918513;29;20023;-90
2023/01/13 10:20:51;;;;;;;16.45;2.80;;;;;;;7.16;91.85;100533.16;4919043;29;20135;-90
2023/01/13 10:23:44;;;;;;;11.10;2.63;;;;;;;7.13;93.22;100534.03;4918735;29;20051;-91
2023/01/13 10:26:22;;;;;;;14.95;3.03;;;;;;;7.09;92.86;100522.03;4918800;29;20039;-88
2023/01/13 10:28:56;;;;;;;14.15;3.00;;;;;;;7.05;94.36;100528.06;4917087;29;20039;-92
2023/01/13 10:31:23;;;;;;;14.75;2.90;;;;;;;7.01;94.08;100526.38;4918680;29;20115;-93
2023/01/13 10:33:57;;;;;;;16.75;2.83;;;;;;;6.95;94.41;100525.53;4918740;29;20039;-92
2023/01/13 10:36:23;;;;;;;18.50;3.05;;;;;;;6.93;95.74;100535.00;4918523;29;20032;-89
2023/01/13 10:38:49;;;;;;;15.77;3.07;;;;;;;6.89;95.94;100541.03;4918626;29;20024;-89
2023/01/13 10:41:14;;;;;;;13.48;3.28;;;;;;;6.84;96.02;100553.13;4919826;29;20047;-90
2023/01/13 10:44:04;;;;;;;21.17;3.83;;;;;;;6.84;96.05;100557.41;4923273;29;20039;-96
2023/01/13 10:46:32;;;;;;;14.55;3.20;;;;;;;6.76;96.49;100558.31;4921480;29;20024;-93
2023/01/13 10:49:02;;;;;;;17.60;3.90;;;;;;;6.71;96.53;100564.34;4923330;29;20047;-96
2023/01/13 10:51:36;;;;;;;13.77;3.10;;;;;;;6.70;97.17;100558.31;4919302;29;20028;-96
2023/01/13 10:54:21;;;;;;;17.05;3.58;;;;;;;6.65;97.54;100557.50;4920062;29;20028;-96
2023/01/13 10:56:47;;;;;;;13.07;3.15;;;;;;;6.64;97.65;100564.34;4918994;29;20119;-95
2023/01/13 10:59:17;;;;;;;15.50;3.40;;;;;;;6.66;98.22;100564.38;4918328;29;20396;-95
2023/01/13 11:01:56;;;;;;;11.82;2.95;;;;;;;6.69;99.09;100548.00;4918536;29;20054;-96
2023/01/13 11:04:37;;;;;;;15.10;3.22;;;;;;;6.78;98.60;100550.56;4919158;29;20046;-95
2023/01/13 11:07:22;;;;;;;13.38;2.80;;;;;;;6.73;98.79;100560.03;4918282;29;20036;-95
2023/01/13 11:09:59;;;;;;;16.35;3.25;;;;;;;6.77;97.95;100567.75;4918361;29;20024;-95
2023/01/13 11:12:33;;;;;;;14.73;3.22;;;;;;;6.77;98.34;100565.19;4922667;29;20497;-95
2023/01/13 11:15:03;;;;;;;15.77;3.63;;;;;;;6.78;97.55;100579.81;4924508;29;20444;-96
2023/01/13 11:17:39;;;;;;;19.17;3.45;;;;;;;6.82;96.60;100570.31;4919337;29;20052;-95
2023/01/13 11:20:10;;;;;;;16.48;3.30;;;;;;;6.81;96.37;100573.75;4917820;29;20032;-94
2023/01/13 11:22:51;;;;;;;18.25;3.42;;;;;;;6.83;96.64;100560.84;4919952;29;20134;-94
2023/01/13 11:26:05;;;;;;;16.08;3.22;;;;;;;6.91;96.04;100566.84;4936803;29;20027;-94
2023/01/13 11:28:56;;;;;;;13.02;3.13;;;;;;;6.91;95.50;100575.44;4928831;29;20043;-94
2023/01/13 11:31:33;;;;;;;14.80;3.03;;;;;;;6.92;95.72;100579.72;4936994;29;20031;-94
2023/01/13 11:34:07;;;;;;;16.58;2.90;;;;;;;6.94;95.48;100588.34;4936718;29;20028;-93
2023/01/13 11:36:54;;;;;;;14.68;2.60;;;;;;;6.99;95.02;100595.16;4935891;29;20027;-94
2023/01/13 11:39:38;;;;;;;17.25;3.08;;;;;;;7.05;94.67;100584.84;4918353;29;20035;-91
2023/01/13 11:42:20;;;;;;;16.05;2.85;;;;;;;7.09;94.68;100581.38;4917549;29;20043;-89
2023/01/13 11:45:06;;;;;;;11.52;2.60;;;;;;;7.15;93.50;100591.66;4910948;29;20039;-93
2023/01/13 11:47:34;;;;;;;14.02;2.80;;;;;;;7.22;93.23;100585.59;4916972;29;20027;-91
2023/01/13 11:50:00;;;;;;;18.73;3.25;;;;;;;7.25;92.69;100588.16;4917888;29;20024;-91
2023/01/13 11:53:08;;;;;;;15.23;2.80;;;;;;;7.24;92.35;100591.63;4919059;29;20028;-90
2023/01/13 11:55:54;;;;;;;14.10;2.95;;;;;;;7.31;91.89;100596.75;4917185;29;20489;-93
2023/01/13 11:58:41;;;;;;;12.25;2.80;;;;;;;7.27;93.00;100598.47;4917748;29;20497;-91
2023/01/13 12:01:41;;;;;;;;;;;;;;;7.28;93.20;100599.34;4917662;29;20056;-91
2023/01/13 12:04:22;;;;;;;16.00;3.15;;;;;;;7.31;93.85;100605.34;4859426;29;19916;-91
2023/01/13 12:06:58;;;;;;;13.63;2.78;;;;;;;7.30;93.58;100611.38;4911087;29;20103;-88
2023/01/13 12:09:32;;;;;;;16.40;3.17;;;;;;;7.26;92.41;100620.03;4917368;29;20024;-91
2023/01/13 12:12:35;;;;;;;13.40;2.97;;;;;;;7.23;92.72;100626.03;4917317;29;20503;-89
2023/01/13 12:15:18;;;;;;;14.27;2.70;;;;;;;7.23;92.44;100627.78;4918070;29;20054;-90
2023/01/13 12:17:53;;;;;;;13.60;3.15;;;;;;;7.25;91.69;100624.31;4917427;29;20394;-90
2023/01/13 12:20:37;;;;;;;14.02;2.60;;;;;;;7.28;90.93;100630.31;4917292;29;20028;-88
2023/01/13 12:23:10;;;;;;;15.32;2.85;;;;;;;7.26;90.66;100631.19;4917025;29;20059;-88
2023/01/13 12:25:42;;;;;;;10.75;2.47;;;;;;;7.29;90.34;100639.78;4917330;29;20055;-89
2023/01/13 12:28:18;;;;;;;12.07;2.40;;;;;;;7.28;89.88;100635.50;4916436;29;20024;-89
2023/01/13 12:30:43;;;;;;;12.33;2.90;;;;;;;7.30;89.06;100621.69;4917006;29;20092;-89